Marietta, South Carolina
Current Conditions -  °F | °C
As of 3:53 PM on Saturday 25 Oct 2014 (Local Time) from KGMU Reporting Station
Clear Clear  
Wind Chill: 74°   Ceiling: Unl
Heat Index: 74°   Visibility: 10mi
Dew Point: 42°   Wind: 8mph
Humidity: 32%   Direction: 260°W
Pressure: 29.99"   Gusts: NA
Location:  35.02°N, 82.5°W
Report Text: KGMU 251953Z 26007KT 10SM CLR 23/06 A2999 RMK AO2 SLP149 T02330056 $
Loading
Personal Weather Stations






























Interactive Weather Map
Tropical Storm Tracking
New forecast layout! Learn more

10-Day Weather Forecast

Advertisements
Track Severe Weather on mobile